createdAt,value
2022-10-22T00:01:06.003Z,14.09
2022-10-22T00:03:33.936Z,14.08
2022-10-22T00:06:01.871Z,13.86
2022-10-22T00:08:30.265Z,14.06
2022-10-22T00:10:58.162Z,14.03
2022-10-22T00:13:28.922Z,14.11
2022-10-22T00:15:56.634Z,14.05
2022-10-22T00:18:24.444Z,14.00
2022-10-22T00:20:52.152Z,13.92
2022-10-22T00:23:19.857Z,13.97
2022-10-22T00:25:47.511Z,13.87
2022-10-22T00:28:15.555Z,13.97
2022-10-22T00:30:44.650Z,13.94
2022-10-22T00:33:12.362Z,13.93
2022-10-22T00:35:40.169Z,13.96
2022-10-22T00:38:08.188Z,13.94
2022-10-22T00:40:36.273Z,13.97
2022-10-22T00:43:04.224Z,14.01
2022-10-22T00:45:32.011Z,13.97
2022-10-22T00:48:05.697Z,14.08
2022-10-22T00:50:36.767Z,14.09
2022-10-22T00:53:07.547Z,14.07
2022-10-22T00:55:36.433Z,14.10
2022-10-22T00:58:05.182Z,13.96
2022-10-22T01:00:33.301Z,14.10
2022-10-22T01:03:03.170Z,14.17
2022-10-22T01:05:45.240Z,14.14
2022-10-22T01:08:23.238Z,14.14
2022-10-22T01:11:00.826Z,14.18
2022-10-22T01:13:39.784Z,14.00
2022-10-22T01:16:12.777Z,14.11
2022-10-22T01:18:49.041Z,14.11
2022-10-22T01:21:26.298Z,14.01
2022-10-22T01:24:36.692Z,14.07
2022-10-22T01:27:22.057Z,14.10
2022-10-22T01:29:53.946Z,14.12
2022-10-22T01:32:24.708Z,14.04
2022-10-22T01:34:56.389Z,13.96
2022-10-22T01:37:27.210Z,13.91
2022-10-22T01:39:56.983Z,14.00
2022-10-22T01:42:25.067Z,13.98
2022-10-22T01:44:54.269Z,14.00
2022-10-22T01:47:36.936Z,14.00
2022-10-22T01:50:33.501Z,13.96
2022-10-22T01:53:20.023Z,13.93
2022-10-22T01:55:57.991Z,13.91
2022-10-22T01:58:40.686Z,13.95
2022-10-22T02:01:17.077Z,13.97
2022-10-22T02:03:50.119Z,13.97
2022-10-22T02:06:22.178Z,13.96
2022-10-22T02:08:50.479Z,13.98
2022-10-22T02:11:18.436Z,13.94
2022-10-22T02:13:49.283Z,13.91
2022-10-22T02:16:22.815Z,13.96
2022-10-22T02:18:55.026Z,14.01
2022-10-22T02:21:23.178Z,13.96
2022-10-22T02:23:51.106Z,13.95
2022-10-22T02:26:24.661Z,13.79
2022-10-22T02:28:59.872Z,13.92
2022-10-22T02:35:04.593Z,13.93
2022-10-22T02:37:33.548Z,14.00
2022-10-22T02:40:01.227Z,14.00
2022-10-22T02:42:29.731Z,14.04
2022-10-22T02:44:57.439Z,13.95
2022-10-22T02:47:25.097Z,13.88
2022-10-22T02:49:52.803Z,13.82
2022-10-22T02:52:21.879Z,14.05
2022-10-22T02:54:49.561Z,14.10
2022-10-22T02:57:17.292Z,14.12
2022-10-22T02:59:45.067Z,14.10
2022-10-22T03:02:12.757Z,14.02
2022-10-22T03:04:40.489Z,14.07
2022-10-22T03:07:08.235Z,14.02
2022-10-22T03:09:37.361Z,14.01
2022-10-22T03:12:05.578Z,14.02
2022-10-22T03:14:33.244Z,14.05
2022-10-22T03:17:00.945Z,14.12
2022-10-22T03:19:28.630Z,14.15
2022-10-22T03:22:01.125Z,14.03
2022-10-22T03:24:31.262Z,14.09
2022-10-22T03:27:00.377Z,14.01
2022-10-22T03:29:28.905Z,14.09
2022-10-22T03:31:56.633Z,13.84
2022-10-22T03:34:24.345Z,13.96
2022-10-22T03:36:53.129Z,14.04
2022-10-22T03:39:21.920Z,14.05
2022-10-22T03:41:50.706Z,14.04
2022-10-22T03:44:20.758Z,14.03
2022-10-22T03:46:48.418Z,14.06
2022-10-22T03:49:16.137Z,13.94
2022-10-22T03:51:44.098Z,13.74
2022-10-22T03:54:11.833Z,13.87
2022-10-22T03:56:39.601Z,13.84
2022-10-22T03:59:07.302Z,13.99
2022-10-22T04:01:36.411Z,13.96
2022-10-22T04:04:04.185Z,13.97
2022-10-22T04:06:32.103Z,13.91
2022-10-22T04:09:01.097Z,13.96
2022-10-22T04:11:28.870Z,13.87
2022-10-22T04:13:56.546Z,13.87
2022-10-22T04:16:27.372Z,13.81
2022-10-22T04:18:58.508Z,13.85
2022-10-22T04:21:26.679Z,13.65
2022-10-22T04:23:54.787Z,13.84
2022-10-22T04:26:22.819Z,13.78
2022-10-22T04:28:52.150Z,13.77
2022-10-22T04:31:21.401Z,13.75
2022-10-22T04:33:52.904Z,13.71
2022-10-22T04:36:22.344Z,13.72
2022-10-22T04:38:54.999Z,13.71
2022-10-22T04:41:25.304Z,13.73
2022-10-22T04:43:54.722Z,13.71
2022-10-22T04:46:22.894Z,13.72
2022-10-22T04:48:52.824Z,13.81
2022-10-22T04:51:24.420Z,13.78
2022-10-22T04:53:52.332Z,13.75
2022-10-22T04:56:21.960Z,13.75
2022-10-22T04:58:51.391Z,13.69
2022-10-22T05:01:20.818Z,13.67
2022-10-22T05:03:49.963Z,13.70
2022-10-22T05:06:18.235Z,13.60
2022-10-22T05:08:47.953Z,13.62
2022-10-22T05:11:17.636Z,13.67
2022-10-22T05:13:45.943Z,13.77
2022-10-22T05:16:14.359Z,13.73
2022-10-22T05:18:44.371Z,13.66
2022-10-22T05:21:17.392Z,13.71
2022-10-22T05:23:45.610Z,13.73
2022-10-22T05:26:15.999Z,13.70
2022-10-22T05:28:43.990Z,13.66
2022-10-22T05:31:13.388Z,13.68
2022-10-22T05:33:41.852Z,13.74
2022-10-22T05:36:13.183Z,13.69
2022-10-22T05:38:40.969Z,13.67
2022-10-22T05:41:11.245Z,13.76
2022-10-22T05:43:40.821Z,13.83
2022-10-22T05:46:10.695Z,13.78
2022-10-22T05:48:39.025Z,13.79
2022-10-22T05:51:09.302Z,13.77
2022-10-22T05:53:38.818Z,13.74
2022-10-22T05:56:08.909Z,13.74
2022-10-22T05:58:40.192Z,13.83
2022-10-22T06:01:12.395Z,13.77
2022-10-22T06:03:40.192Z,13.84
2022-10-22T06:06:18.434Z,13.81
2022-10-22T06:08:46.546Z,13.64
2022-10-22T06:11:14.485Z,13.81
2022-10-22T06:13:43.485Z,13.86
2022-10-22T06:16:11.593Z,13.88
2022-10-22T06:18:39.311Z,13.89
2022-10-22T06:21:08.142Z,13.88
2022-10-22T06:23:36.272Z,13.92
2022-10-22T06:26:04.527Z,13.88
2022-10-22T06:28:32.753Z,13.83
2022-10-22T06:31:02.776Z,13.78
2022-10-22T06:33:30.878Z,13.72
2022-10-22T06:36:07.663Z,13.67
2022-10-22T06:38:35.727Z,13.48
2022-10-22T06:41:04.491Z,13.69
2022-10-22T06:43:32.168Z,13.72
2022-10-22T06:46:02.278Z,13.61
2022-10-22T06:48:30.818Z,13.71
2022-10-22T06:51:02.387Z,13.63
2022-10-22T06:53:30.323Z,13.76
2022-10-22T06:55:58.267Z,13.67
2022-10-22T06:58:26.012Z,13.69
2022-10-22T07:01:03.647Z,13.71
2022-10-22T07:03:31.494Z,13.77
2022-10-22T07:06:01.327Z,13.75
2022-10-22T07:08:29.704Z,13.90
2022-10-22T07:10:59.205Z,13.77
2022-10-22T07:13:26.934Z,13.88
2022-10-22T07:15:55.504Z,13.89
2022-10-22T07:18:24.593Z,14.00
2022-10-22T07:20:52.288Z,14.01
2022-10-22T07:23:19.991Z,14.05
2022-10-22T07:25:47.781Z,14.05
2022-10-22T07:28:15.751Z,13.99
2022-10-22T07:30:43.482Z,14.18
2022-10-22T07:33:11.658Z,14.07
2022-10-22T07:35:41.369Z,14.25
2022-10-22T07:38:09.861Z,14.30
2022-10-22T07:40:37.948Z,14.37
2022-10-22T07:43:06.322Z,14.50
2022-10-22T07:45:34.378Z,14.88
2022-10-22T07:48:02.293Z,15.56
2022-10-22T07:50:30.130Z,15.98
2022-10-22T07:52:59.287Z,16.10
2022-10-22T07:55:27.156Z,15.97
2022-10-22T07:57:54.871Z,16.09
2022-10-22T08:00:25.189Z,16.20
2022-10-22T08:02:53.444Z,15.90
2022-10-22T08:05:21.224Z,15.61
2022-10-22T08:07:48.926Z,16.08
2022-10-22T08:10:18.208Z,16.62
2022-10-22T08:12:45.925Z,17.65
2022-10-22T08:15:13.823Z,17.53
2022-10-22T08:17:41.949Z,17.87
2022-10-22T08:20:10.716Z,17.74
2022-10-22T08:22:38.468Z,17.53
2022-10-22T08:25:07.133Z,17.21
2022-10-22T08:27:36.257Z,17.01
2022-10-22T08:30:04.855Z,16.88
2022-10-22T08:32:33.088Z,16.33
2022-10-22T08:35:00.813Z,16.21
2022-10-22T08:37:28.517Z,16.26
2022-10-22T08:39:56.176Z,15.97
2022-10-22T08:42:44.177Z,16.01
2022-10-22T08:45:17.084Z,16.10
2022-10-22T08:48:00.872Z,15.82
2022-10-22T08:50:34.558Z,15.78
2022-10-22T08:53:06.685Z,15.99
2022-10-22T08:55:37.562Z,16.63
2022-10-22T08:58:20.146Z,17.04
2022-10-22T09:00:53.874Z,16.78
2022-10-22T09:03:37.617Z,16.73
2022-10-22T09:06:12.148Z,16.62
2022-10-22T09:08:41.821Z,16.88
2022-10-22T09:11:20.031Z,16.85
2022-10-22T09:13:50.161Z,16.97
2022-10-22T09:16:20.495Z,16.62
2022-10-22T09:19:01.347Z,16.74
2022-10-22T09:21:39.637Z,17.04
2022-10-22T09:24:13.217Z,16.91
2022-10-22T09:26:42.608Z,16.60
2022-10-22T09:29:20.636Z,16.33
2022-10-22T09:31:48.367Z,16.41
2022-10-22T09:34:16.798Z,16.50
2022-10-22T09:36:44.592Z,16.48
2022-10-22T09:39:24.209Z,16.55
2022-10-22T09:41:51.913Z,16.63
2022-10-22T09:44:22.151Z,16.58
2022-10-22T09:46:49.876Z,16.65
2022-10-22T09:49:20.709Z,16.83
2022-10-22T09:51:52.508Z,16.73
2022-10-22T09:54:22.590Z,16.84
2022-10-22T09:56:56.599Z,17.19
2022-10-22T09:59:33.768Z,16.90
2022-10-22T10:02:19.481Z,16.76
2022-10-22T10:04:50.958Z,16.69
2022-10-22T10:07:20.714Z,16.72
2022-10-22T10:09:48.840Z,16.78
2022-10-22T10:12:38.217Z,16.98
2022-10-22T10:15:18.019Z,17.00
2022-10-22T10:17:51.996Z,17.14
2022-10-22T10:20:31.062Z,17.55
2022-10-22T10:23:08.823Z,17.63
2022-10-22T10:25:46.746Z,17.92
2022-10-22T10:28:37.983Z,18.32
2022-10-22T10:31:18.788Z,18.97
2022-10-22T10:33:57.624Z,19.44
2022-10-22T10:36:34.147Z,19.84
2022-10-22T10:39:05.965Z,20.16
2022-10-22T10:41:45.425Z,20.54
2022-10-22T10:44:32.633Z,21.08
2022-10-22T10:47:13.053Z,21.48
2022-10-22T10:49:41.057Z,21.73
2022-10-22T10:52:21.175Z,21.55
2022-10-22T10:55:00.696Z,21.50
2022-10-22T10:57:40.943Z,22.13
2022-10-22T11:00:12.825Z,21.15
2022-10-22T11:03:13.224Z,20.38
2022-10-22T11:05:45.077Z,20.22
2022-10-22T11:08:19.977Z,20.35
2022-10-22T11:10:50.719Z,19.79
2022-10-22T11:13:28.021Z,19.18
2022-10-22T11:16:02.572Z,19.13
2022-10-22T11:18:35.438Z,18.80
2022-10-22T11:21:14.267Z,18.68
2022-10-22T11:23:47.697Z,18.68
2022-10-22T11:26:28.263Z,18.60
2022-10-22T11:28:59.070Z,18.50
2022-10-22T11:31:27.918Z,18.30
2022-10-22T11:34:28.559Z,18.35
2022-10-22T11:36:55.835Z,18.46
2022-10-22T11:39:44.230Z,18.37
2022-10-22T11:42:13.958Z,18.61
2022-10-22T11:44:49.749Z,18.57
2022-10-22T11:47:20.857Z,18.48
2022-10-22T11:49:58.506Z,18.49
2022-10-22T11:52:40.061Z,18.64
2022-10-22T11:55:33.340Z,19.02
2022-10-22T11:58:03.121Z,19.19
2022-10-22T12:00:41.264Z,19.71
2022-10-22T12:03:18.923Z,19.75
2022-10-22T12:05:47.640Z,20.13
2022-10-22T12:08:26.077Z,20.47
2022-10-22T12:11:05.105Z,21.49
2022-10-22T12:13:35.544Z,22.59
2022-10-22T12:16:05.363Z,22.89
2022-10-22T12:18:40.795Z,23.54
2022-10-22T12:21:12.957Z,24.29
2022-10-22T12:23:42.663Z,23.21
2022-10-22T12:26:24.995Z,24.59
2022-10-22T12:28:57.485Z,25.09
2022-10-22T12:31:25.254Z,23.48
2022-10-22T12:33:57.828Z,23.25
2022-10-22T12:36:27.904Z,22.40
2022-10-22T12:39:01.119Z,22.23
2022-10-22T12:41:32.258Z,22.11
2022-10-22T12:44:00.663Z,21.17
2022-10-22T12:46:30.904Z,20.77
2022-10-22T12:49:01.529Z,19.77
2022-10-22T12:51:29.760Z,19.42
2022-10-22T12:54:05.978Z,18.95
2022-10-22T12:56:36.626Z,18.64
2022-10-22T12:59:08.854Z,18.34
2022-10-22T13:01:39.316Z,17.97
2022-10-22T13:04:19.793Z,17.92
2022-10-22T13:06:49.529Z,17.96
2022-10-22T13:09:23.883Z,17.79
2022-10-22T13:11:58.147Z,17.61
2022-10-22T13:14:31.569Z,17.30
2022-10-22T13:17:12.114Z,17.24
2022-10-22T13:19:48.794Z,17.12
2022-10-22T13:22:30.341Z,17.02
2022-10-22T13:25:01.025Z,16.80
2022-10-22T13:27:29.643Z,16.76
2022-10-22T13:30:02.180Z,16.61
2022-10-22T13:32:32.869Z,16.61
2022-10-22T13:35:02.358Z,16.51
2022-10-22T13:37:32.176Z,16.46
2022-10-22T13:40:01.220Z,16.25
2022-10-22T13:42:28.927Z,16.40
2022-10-22T13:44:56.644Z,16.57
2022-10-22T13:47:29.318Z,16.42
2022-10-22T13:49:59.321Z,16.36
2022-10-22T13:52:35.521Z,16.39
2022-10-22T13:55:14.549Z,16.20
2022-10-22T13:57:42.390Z,16.26
2022-10-22T14:00:13.973Z,16.25
2022-10-22T14:02:42.363Z,16.21
2022-10-22T14:05:11.268Z,16.15
2022-10-22T14:07:40.393Z,16.22
2022-10-22T14:10:18.499Z,16.19
2022-10-22T14:12:50.877Z,16.05
2022-10-22T14:15:23.770Z,16.07
2022-10-22T14:17:55.000Z,16.05
2022-10-22T14:20:25.033Z,15.93
2022-10-22T14:22:52.771Z,15.92
2022-10-22T14:25:24.173Z,16.05
2022-10-22T14:27:52.339Z,16.02
2022-10-22T14:30:21.950Z,15.92
2022-10-22T14:32:50.273Z,16.04
2022-10-22T14:35:20.587Z,15.90
2022-10-22T14:37:48.734Z,15.86
2022-10-22T14:40:19.178Z,16.00
2022-10-22T14:42:49.805Z,15.96
2022-10-22T14:45:20.935Z,15.91
2022-10-22T14:47:49.350Z,15.80
2022-10-22T14:50:17.679Z,15.91
2022-10-22T14:52:46.043Z,15.77
2022-10-22T14:55:15.553Z,15.77
2022-10-22T14:57:43.703Z,15.74
2022-10-22T15:00:15.551Z,15.64
2022-10-22T15:02:43.652Z,15.64
2022-10-22T15:05:11.962Z,15.65
2022-10-22T15:07:40.636Z,15.68
2022-10-22T15:10:09.801Z,15.64
2022-10-22T15:12:37.559Z,15.65
2022-10-22T15:15:06.216Z,15.63
2022-10-22T15:17:35.369Z,15.58
2022-10-22T15:20:04.158Z,15.59
2022-10-22T15:22:35.013Z,15.61
2022-10-22T15:25:03.506Z,15.55
2022-10-22T15:27:31.828Z,15.51
2022-10-22T15:29:59.847Z,15.49
2022-10-22T15:32:28.352Z,15.44
2022-10-22T15:34:57.482Z,15.36
2022-10-22T15:37:25.186Z,15.40
2022-10-22T15:39:52.872Z,15.36
2022-10-22T15:42:20.617Z,15.34
2022-10-22T15:44:48.351Z,15.35
2022-10-22T15:47:16.116Z,15.32
2022-10-22T15:49:43.855Z,15.37
2022-10-22T15:52:13.049Z,15.31
2022-10-22T15:54:43.768Z,15.19
2022-10-22T15:57:11.471Z,15.22
2022-10-22T15:59:39.633Z,15.06
2022-10-22T16:02:08.176Z,15.12
2022-10-22T16:04:35.834Z,15.10
2022-10-22T16:07:03.607Z,15.02
2022-10-22T16:09:32.699Z,15.03
2022-10-22T16:12:00.436Z,14.93
2022-10-22T16:14:28.876Z,14.87
2022-10-22T16:16:57.502Z,14.82
2022-10-22T16:19:26.059Z,14.75
2022-10-22T16:21:56.263Z,14.76
2022-10-22T16:24:24.456Z,14.73
2022-10-22T16:26:53.891Z,14.62
2022-10-22T16:29:21.624Z,14.63
2022-10-22T16:31:49.380Z,14.49
2022-10-22T16:34:17.149Z,14.37
2022-10-22T16:36:45.215Z,14.39
2022-10-22T16:39:12.950Z,14.40
2022-10-22T16:41:40.663Z,14.38
2022-10-22T16:44:12.291Z,14.31
2022-10-22T16:46:40.043Z,14.22
2022-10-22T16:49:08.529Z,14.12
2022-10-22T16:51:36.369Z,14.11
2022-10-22T16:54:06.781Z,14.05
2022-10-22T16:56:37.513Z,14.12
2022-10-22T16:59:05.206Z,14.02
2022-10-22T17:01:39.531Z,14.12
2022-10-22T17:04:08.256Z,14.19
2022-10-22T17:06:36.055Z,14.12
2022-10-22T17:09:04.275Z,14.10
2022-10-22T17:11:36.286Z,14.07
2022-10-22T17:14:05.944Z,14.01
2022-10-22T17:16:35.028Z,13.92
2022-10-22T17:19:04.550Z,13.82
2022-10-22T17:21:32.368Z,13.82
2022-10-22T17:24:00.101Z,13.76
2022-10-22T17:26:27.926Z,13.76
2022-10-22T17:28:55.752Z,13.71
2022-10-22T17:31:27.787Z,13.73
2022-10-22T17:33:59.783Z,13.76
2022-10-22T17:36:31.807Z,13.72
2022-10-22T17:39:05.545Z,13.79
2022-10-22T17:41:35.345Z,13.78
2022-10-22T17:44:04.664Z,13.76
2022-10-22T17:46:33.628Z,13.66
2022-10-22T17:49:05.317Z,13.51
2022-10-22T17:51:33.630Z,13.50
2022-10-22T17:54:03.419Z,13.46
2022-10-22T17:56:33.701Z,13.38
2022-10-22T17:59:02.682Z,13.33
2022-10-22T18:01:32.368Z,13.34
2022-10-22T18:04:04.381Z,13.36
2022-10-22T18:06:32.998Z,13.25
2022-10-22T18:09:00.871Z,13.25
2022-10-22T18:11:31.459Z,13.16
2022-10-22T18:13:59.740Z,13.05
2022-10-22T18:16:27.548Z,13.00
2022-10-22T18:18:56.739Z,13.02
2022-10-22T18:21:28.296Z,12.99
2022-10-22T18:23:56.950Z,13.04
2022-10-22T18:26:26.872Z,12.96
2022-10-22T18:28:55.075Z,12.96
2022-10-22T18:31:24.767Z,13.04
2022-10-22T18:36:24.057Z,12.95
2022-10-22T18:38:54.738Z,12.97
2022-10-22T18:41:22.830Z,12.93
2022-10-22T18:43:54.650Z,12.89
2022-10-22T18:46:23.923Z,12.80
2022-10-22T18:48:53.473Z,12.82
2022-10-22T18:51:21.213Z,12.73
2022-10-22T18:54:04.516Z,12.73
2022-10-22T18:56:41.519Z,12.71
2022-10-22T18:59:16.398Z,12.67
2022-10-22T19:01:44.144Z,12.71
2022-10-22T19:04:13.408Z,12.65
2022-10-22T19:06:44.521Z,12.65
2022-10-22T19:09:13.624Z,12.72
2022-10-22T19:11:43.852Z,12.67
2022-10-22T19:14:11.651Z,12.65
2022-10-22T19:16:39.341Z,12.61
2022-10-22T19:19:08.698Z,12.52
2022-10-22T19:21:37.799Z,12.58
2022-10-22T19:24:05.898Z,12.56
2022-10-22T19:26:33.818Z,12.51
2022-10-22T19:29:03.311Z,12.44
2022-10-22T19:31:31.620Z,12.23
2022-10-22T19:34:00.551Z,12.43
2022-10-22T19:36:30.039Z,12.56
2022-10-22T19:38:58.622Z,12.56
2022-10-22T19:41:28.140Z,12.61
2022-10-22T19:43:57.159Z,12.57
2022-10-22T19:46:27.991Z,12.55
2022-10-22T19:48:57.287Z,12.55
2022-10-22T19:51:27.760Z,12.59
2022-10-22T19:53:59.445Z,12.63
2022-10-22T19:56:27.950Z,12.62
2022-10-22T19:58:55.731Z,12.69
2022-10-22T20:01:23.773Z,12.66
2022-10-22T20:03:53.164Z,12.66
2022-10-22T20:06:21.796Z,12.65
2022-10-22T20:08:52.348Z,12.66
2022-10-22T20:11:25.333Z,12.67
2022-10-22T20:13:53.100Z,12.63
2022-10-22T20:16:23.834Z,12.53
2022-10-22T20:18:53.360Z,12.51
2022-10-22T20:21:22.043Z,12.47
2022-10-22T20:23:53.454Z,12.44
2022-10-22T20:26:21.319Z,12.45
2022-10-22T20:28:49.016Z,12.42
2022-10-22T20:31:20.607Z,12.34
2022-10-22T20:33:49.246Z,12.27
2022-10-22T20:36:20.464Z,12.27
2022-10-22T20:38:48.939Z,12.38
2022-10-22T20:41:18.867Z,12.32
2022-10-22T20:43:47.614Z,12.38
2022-10-22T20:46:18.932Z,12.33
2022-10-22T20:48:46.854Z,12.33
2022-10-22T20:51:15.028Z,12.29
2022-10-22T20:53:44.228Z,12.20
2022-10-22T20:56:12.488Z,12.23
2022-10-22T20:58:40.370Z,12.22
2022-10-22T21:01:12.071Z,12.22
2022-10-22T21:03:39.969Z,12.23
2022-10-22T21:06:08.123Z,12.22
2022-10-22T21:08:35.850Z,12.19
2022-10-22T21:11:05.057Z,12.01
2022-10-22T21:13:33.451Z,12.06
2022-10-22T21:16:07.441Z,11.93
2022-10-22T21:18:35.743Z,11.95
2022-10-22T21:21:05.167Z,11.86
2022-10-22T21:23:33.155Z,11.95
2022-10-22T21:26:01.025Z,11.96
2022-10-22T21:31:03.215Z,12.00
2022-10-22T21:33:31.078Z,11.96
2022-10-22T21:35:59.153Z,11.98
2022-10-22T21:38:27.007Z,11.94
2022-10-22T21:40:54.778Z,12.00
2022-10-22T21:43:22.505Z,11.96
2022-10-22T21:45:51.673Z,11.85
2022-10-22T21:48:19.410Z,11.83
2022-10-22T21:50:47.204Z,11.68
2022-10-22T21:53:15.344Z,11.80
2022-10-22T21:55:43.046Z,11.74
2022-10-22T21:58:10.770Z,11.72
2022-10-22T22:00:38.489Z,11.65
2022-10-22T22:03:09.128Z,11.62
2022-10-22T22:05:37.046Z,11.51
2022-10-22T22:08:04.797Z,11.53
2022-10-22T22:10:32.636Z,11.49
2022-10-22T22:13:00.338Z,11.50
2022-10-22T22:15:28.742Z,11.53
2022-10-22T22:17:56.451Z,11.58
2022-10-22T22:20:25.705Z,11.54
2022-10-22T22:22:53.478Z,11.63
2022-10-22T22:25:21.243Z,11.61
2022-10-22T22:27:49.011Z,11.64
2022-10-22T22:30:17.860Z,11.57
2022-10-22T22:32:45.580Z,11.59
2022-10-22T22:35:13.270Z,11.59
2022-10-22T22:37:42.524Z,11.50
2022-10-22T22:40:11.630Z,11.52
2022-10-22T22:42:39.292Z,11.56
2022-10-22T22:45:07.795Z,11.54
2022-10-22T22:47:35.445Z,11.57
2022-10-22T22:50:03.153Z,11.57
2022-10-22T22:52:30.854Z,11.48
2022-10-22T22:54:59.963Z,11.46
2022-10-22T22:57:27.647Z,11.49
2022-10-22T22:59:55.373Z,11.51
2022-10-22T23:02:23.167Z,11.42
2022-10-22T23:04:50.826Z,11.29
2022-10-22T23:07:18.506Z,11.29
2022-10-22T23:09:46.265Z,11.34
2022-10-22T23:12:15.472Z,11.32
2022-10-22T23:14:43.144Z,11.32
2022-10-22T23:17:10.866Z,11.35
2022-10-22T23:19:38.601Z,11.31
2022-10-22T23:22:06.278Z,11.33
2022-10-22T23:24:34.075Z,11.31
2022-10-22T23:27:03.844Z,11.23
2022-10-22T23:29:35.988Z,11.27
2022-10-22T23:32:04.766Z,11.31
2022-10-22T23:34:33.273Z,11.27
2022-10-22T23:37:01.043Z,11.27
2022-10-22T23:39:29.831Z,11.28
2022-10-22T23:41:57.989Z,11.23
2022-10-22T23:44:26.121Z,11.16
2022-10-22T23:46:55.320Z,11.06
2022-10-22T23:49:23.013Z,11.05
2022-10-22T23:51:50.687Z,10.98
2022-10-22T23:54:19.204Z,11.00
2022-10-22T23:56:47.492Z,11.09
2022-10-22T23:59:15.531Z,11.02
